East Danville, Ohio
Current Conditions -  °F | °C
As of 3:08 AM on Thursday 27 Nov 2014 (Local Time) from KILN Reporting Station
Overcast Overcast  
Wind Chill: 19°   Ceiling: 11000
Heat Index: 27°   Visibility: 7mi
Dew Point: 23°   Wind: 8mph
Humidity: 85%   Direction: 340°NNW
Pressure: 30.05"   Gusts: NA
Location:  39.1546°N, 83.569°W
Report Text: KILN 270808Z AUTO 34007KT 7SM SCT022 OVC110 M03/M05 A3005 RMK AO2 T10281050
Loading
Personal Weather Stations






























Interactive Weather Map New forecast layout! Learn more

10-Day Weather Forecast

Advertisements
Track Severe Weather on mobile